Time;durP1;ratioP1;P1;durP2;ratioP2;P2;SDS_P1;SDS_P2;PMS_P1;PMS_P2;Temp;Humidity;BMP_temperature;BMP_pressure;BME280_temperature;BME280_humidity;BME280_pressure;Samples;Min_cycle;Max_cycle;Signal;HPM_P1;HPM_P2
2022/10/26 00:02:18;;;;;;;3.95;2.15;;;;;;;;;;5019397;28;20049;-65
2022/10/26 00:04:44;;;;;;;2.40;2.15;;;;;;;;;;5019287;28;20038;-65
2022/10/26 00:07:10;;;;;;;2.40;2.17;;;;;;;;;;5020394;28;20071;-65
2022/10/26 00:09:36;;;;;;;2.20;1.98;;;;;;;;;;5019553;28;20061;-65
2022/10/26 00:12:02;;;;;;;2.17;1.98;;;;;;;;;;5003623;28;20083;-65
2022/10/26 00:14:29;;;;;;;2.35;2.15;;;;;;;;;;5019248;28;20045;-65
2022/10/26 00:16:56;;;;;;;2.40;2.20;;;;;;;;;;5021681;28;20045;-65
2022/10/26 00:19:22;;;;;;;1.80;1.70;;;;;;;;;;5022377;28;20136;-65
2022/10/26 00:21:48;;;;;;;2.00;1.90;;;;;;;;;;5022193;28;20050;-65
2022/10/26 00:24:14;;;;;;;2.10;1.90;;;;;;;;;;5020841;28;20411;-65
2022/10/26 00:26:40;;;;;;;2.00;1.77;;;;;;;;;;5017486;28;20132;-65
2022/10/26 00:29:06;;;;;;;1.80;1.70;;;;;;;;;;5016394;28;20536;-65
2022/10/26 00:31:33;;;;;;;1.85;1.75;;;;;;;;;;5000541;28;20053;-65
2022/10/26 00:33:59;;;;;;;1.67;1.58;;;;;;;;;;5016615;28;20045;-65
2022/10/26 00:36:25;;;;;;;1.83;1.73;;;;;;;;;;5016063;28;20088;-65
2022/10/26 00:38:53;;;;;;;3.22;1.67;;;;;;;;;;5016890;28;20145;-65
2022/10/26 00:41:20;;;;;;;1.85;1.75;;;;;;;;;;5020096;28;20045;-65
2022/10/26 00:43:46;;;;;;;1.73;1.63;;;;;;;;;;5016552;28;20042;-65
2022/10/26 00:46:18;;;;;;;2.38;2.10;;;;;;;;;;5017580;28;20052;-65
2022/10/26 00:48:49;;;;;;;2.35;2.15;;;;;;;;;;5017240;28;20060;-65
2022/10/26 00:51:20;;;;;;;2.00;1.90;;;;;;;;;;4995849;28;20045;-65
2022/10/26 00:53:46;;;;;;;2.00;1.80;;;;;;;;;;4994314;28;20060;-65
2022/10/26 00:56:12;;;;;;;2.72;1.90;;;;;;;;;;5000923;28;20559;-65
2022/10/26 00:58:39;;;;;;;3.03;2.00;;;;;;;;;;5015658;28;20050;-65
2022/10/26 01:01:05;;;;;;;2.53;2.33;;;;;;;;;;5015939;28;20565;-65
2022/10/26 01:03:32;;;;;;;2.05;1.85;;;;;;;;;;4996854;28;20057;-65
2022/10/26 01:05:58;;;;;;;2.03;1.83;;;;;;;;;;4999953;28;20046;-65
2022/10/26 01:08:26;;;;;;;2.45;2.25;;;;;;;;;;5022430;28;20665;-65
2022/10/26 01:10:53;;;;;;;2.17;2.00;;;;;;;;;;4996017;28;20057;-65
2022/10/26 01:13:19;;;;;;;2.28;2.10;;;;;;;;;;5001492;28;20057;-64
2022/10/26 01:16:07;;;;;;;2.55;2.35;;;;;;;;;;5017083;28;20124;-65
2022/10/26 01:18:39;;;;;;;2.22;2.10;;;;;;;;;;5016274;28;20058;-65
2022/10/26 01:21:21;;;;;;;1.70;1.58;;;;;;;;;;5013405;28;20076;-65
2022/10/26 01:23:47;;;;;;;2.25;2.05;;;;;;;;;;4996804;28;20050;-65
2022/10/26 01:26:13;;;;;;;2.03;1.92;;;;;;;;;;5015662;28;20382;-65
2022/10/26 01:28:41;;;;;;;3.05;2.25;;;;;;;;;;5016318;28;20077;-65
2022/10/26 01:31:11;;;;;;;2.20;2.00;;;;;;;;;;5014695;28;20045;-65
2022/10/26 01:33:37;;;;;;;2.67;2.25;;;;;;;;;;5015996;28;20042;-65
2022/10/26 01:36:03;;;;;;;2.28;2.08;;;;;;;;;;5016912;28;20492;-65
2022/10/26 01:38:38;;;;;;;2.53;2.33;;;;;;;;;;4996121;28;20052;-65
2022/10/26 01:41:11;;;;;;;2.05;1.85;;;;;;;;;;5017332;28;20623;-65
2022/10/26 01:43:40;;;;;;;1.95;1.85;;;;;;;;;;4998412;28;20570;-65
2022/10/26 01:46:06;;;;;;;2.50;2.30;;;;;;;;;;5017493;28;20045;-65
2022/10/26 01:48:34;;;;;;;4.95;2.25;;;;;;;;;;4997806;28;20061;-65
2022/10/26 01:51:00;;;;;;;2.10;2.00;;;;;;;;;;4995286;28;20567;-65
2022/10/26 01:53:27;;;;;;;2.17;1.98;;;;;;;;;;4995581;28;20863;-65
2022/10/26 01:55:54;;;;;;;2.25;2.15;;;;;;;;;;4995100;28;20115;-65
2022/10/26 01:58:20;;;;;;;2.28;2.17;;;;;;;;;;5000235;28;20081;-64
2022/10/26 02:00:53;;;;;;;2.28;2.08;;;;;;;;;;4997120;28;20083;-65
2022/10/26 02:03:38;;;;;;;2.13;1.92;;;;;;;;;;5016273;28;20049;-65
2022/10/26 02:06:04;;;;;;;1.50;1.40;;;;;;;;;;4995229;28;20053;-65
2022/10/26 02:08:30;;;;;;;2.10;1.80;;;;;;;;;;4998711;28;20063;-65
2022/10/26 02:11:15;;;;;;;1.52;1.42;;;;;;;;;;4994628;28;20046;-65
2022/10/26 02:13:46;;;;;;;2.47;2.28;;;;;;;;;;5012699;28;20053;-66
2022/10/26 02:16:17;;;;;;;1.98;1.77;;;;;;;;;;5016148;28;20067;-65
2022/10/26 02:18:55;;;;;;;2.15;1.92;;;;;;;;;;5009553;28;20064;-65
2022/10/26 02:21:25;;;;;;;2.38;2.17;;;;;;;;;;5011796;28;20057;-65
2022/10/26 02:23:54;;;;;;;2.00;1.90;;;;;;;;;;5015672;28;20045;-65
2022/10/26 02:26:22;;;;;;;2.30;2.17;;;;;;;;;;4996864;28;20466;-65
2022/10/26 02:28:50;;;;;;;2.42;2.10;;;;;;;;;;4994674;28;20108;-65
2022/10/26 02:31:16;;;;;;;2.38;2.13;;;;;;;;;;5019029;28;20614;-65
2022/10/26 02:33:45;;;;;;;1.92;1.73;;;;;;;;;;5015050;28;20503;-65
2022/10/26 02:36:13;;;;;;;2.05;1.95;;;;;;;;;;5014218;28;20034;-65
2022/10/26 02:38:40;;;;;;;2.50;2.30;;;;;;;;;;5000357;28;20115;-65
2022/10/26 02:41:06;;;;;;;2.00;1.90;;;;;;;;;;5000051;28;20076;-65
2022/10/26 02:43:35;;;;;;;1.70;1.60;;;;;;;;;;4998618;28;20111;-65
2022/10/26 02:46:07;;;;;;;1.77;1.67;;;;;;;;;;5015265;28;20108;-65
2022/10/26 02:48:33;;;;;;;2.03;1.93;;;;;;;;;;4992798;28;20050;-65
2022/10/26 02:51:07;;;;;;;1.77;1.67;;;;;;;;;;4995949;28;20052;-65
2022/10/26 02:53:40;;;;;;;2.95;2.20;;;;;;;;;;5014791;28;20067;-65
2022/10/26 02:56:24;;;;;;;2.15;1.95;;;;;;;;;;5010683;28;20408;-65
2022/10/26 02:58:52;;;;;;;2.08;1.88;;;;;;;;;;5008025;28;20076;-65
2022/10/26 03:01:18;;;;;;;2.05;1.92;;;;;;;;;;4995176;28;20054;-65
2022/10/26 03:03:44;;;;;;;2.30;2.17;;;;;;;;;;5011682;28;20100;-65
2022/10/26 03:06:10;;;;;;;1.75;1.65;;;;;;;;;;5017047;28;20458;-65
2022/10/26 03:08:37;;;;;;;2.08;1.98;;;;;;;;;;5014550;28;20049;-65
2022/10/26 03:11:03;;;;;;;3.28;2.97;;;;;;;;;;4994224;28;20488;-65
2022/10/26 03:13:29;;;;;;;3.55;3.25;;;;;;;;;;4996686;28;20053;-65
2022/10/26 03:15:56;;;;;;;3.58;3.28;;;;;;;;;;5011721;28;20432;-65
2022/10/26 03:18:22;;;;;;;4.38;3.97;;;;;;;;;;5013855;28;20053;-65
2022/10/26 03:20:48;;;;;;;4.30;3.85;;;;;;;;;;5016711;28;20084;-65
2022/10/26 03:23:14;;;;;;;4.97;4.45;;;;;;;;;;4992301;28;20092;-65
2022/10/26 03:25:40;;;;;;;5.22;4.32;;;;;;;;;;5012912;28;20125;-65
2022/10/26 03:28:06;;;;;;;7.40;5.00;;;;;;;;;;5017781;28;20480;-65
2022/10/26 03:30:32;;;;;;;4.90;4.50;;;;;;;;;;5015622;28;20060;-65
2022/10/26 03:32:58;;;;;;;7.63;6.18;;;;;;;;;;5001001;28;20693;-65
2022/10/26 03:35:24;;;;;;;5.55;4.95;;;;;;;;;;5014169;28;20041;-65
2022/10/26 03:37:50;;;;;;;5.15;4.75;;;;;;;;;;4991970;28;20113;-65
2022/10/26 03:40:16;;;;;;;4.80;4.40;;;;;;;;;;5014792;28;20078;-65
2022/10/26 03:42:42;;;;;;;4.63;4.20;;;;;;;;;;5010553;28;20128;-65
2022/10/26 03:45:09;;;;;;;4.15;3.75;;;;;;;;;;4993126;28;20177;-65
2022/10/26 03:47:40;;;;;;;4.32;3.50;;;;;;;;;;4994854;28;20060;-65
2022/10/26 03:50:06;;;;;;;3.40;3.10;;;;;;;;;;5015395;28;20049;-65
2022/10/26 03:52:32;;;;;;;3.00;2.80;;;;;;;;;;5016555;28;20057;-65
2022/10/26 03:54:58;;;;;;;2.92;2.63;;;;;;;;;;4993070;28;20045;-65
2022/10/26 03:57:24;;;;;;;3.08;2.78;;;;;;;;;;4996444;28;20045;-65
2022/10/26 03:59:50;;;;;;;3.25;3.00;;;;;;;;;;4995471;28;20104;-65
2022/10/26 04:02:16;;;;;;;3.90;3.05;;;;;;;;;;4997381;28;20049;-65
2022/10/26 04:04:42;;;;;;;3.85;3.45;;;;;;;;;;4990057;28;20521;-65
2022/10/26 04:07:08;;;;;;;4.22;3.47;;;;;;;;;;5025018;28;20077;-64
2022/10/26 04:09:34;;;;;;;4.55;3.50;;;;;;;;;;5016735;28;20046;-65
2022/10/26 04:12:00;;;;;;;3.53;3.22;;;;;;;;;;5010667;28;20504;-65
2022/10/26 04:14:26;;;;;;;4.80;4.30;;;;;;;;;;5013887;28;20087;-65
2022/10/26 04:16:52;;;;;;;5.18;4.15;;;;;;;;;;4995415;28;20049;-65
2022/10/26 04:19:18;;;;;;;4.32;3.90;;;;;;;;;;4996815;28;20484;-65
2022/10/26 04:21:44;;;;;;;6.72;4.97;;;;;;;;;;5011352;28;20047;-65
2022/10/26 04:24:10;;;;;;;5.05;4.65;;;;;;;;;;5014242;28;20497;-65
2022/10/26 04:26:36;;;;;;;4.55;4.13;;;;;;;;;;5001312;28;20440;-65
2022/10/26 04:29:05;;;;;;;4.20;3.80;;;;;;;;;;5015297;28;20137;-65
2022/10/26 04:31:32;;;;;;;4.90;4.47;;;;;;;;;;5021089;28;20060;-65
2022/10/26 04:33:57;;;;;;;4.18;3.78;;;;;;;;;;5018258;28;20351;-65
2022/10/26 04:36:23;;;;;;;4.38;4.05;;;;;;;;;;4995441;28;20061;-65
2022/10/26 04:38:49;;;;;;;3.75;3.45;;;;;;;;;;5016458;28;20088;-65
2022/10/26 04:41:15;;;;;;;3.88;3.40;;;;;;;;;;4999801;28;20052;-65
2022/10/26 04:43:41;;;;;;;3.58;3.28;;;;;;;;;;5019433;28;20042;-65
2022/10/26 04:46:07;;;;;;;3.05;2.60;;;;;;;;;;5018102;28;20077;-65
2022/10/26 04:48:33;;;;;;;4.78;3.67;;;;;;;;;;5018539;28;20045;-65
2022/10/26 04:51:00;;;;;;;4.45;4.05;;;;;;;;;;4999220;28;20049;-65
2022/10/26 04:53:26;;;;;;;5.20;4.70;;;;;;;;;;5018080;28;20049;-65
2022/10/26 04:55:56;;;;;;;4.60;4.20;;;;;;;;;;4997035;28;20396;-65
2022/10/26 04:58:22;;;;;;;4.20;3.83;;;;;;;;;;4998488;28;20129;-65
2022/10/26 05:00:47;;;;;;;4.82;4.43;;;;;;;;;;5007094;28;20117;-65
2022/10/26 05:03:14;;;;;;;6.20;5.60;;;;;;;;;;4996913;28;20512;-65
2022/10/26 05:05:40;;;;;;;6.30;5.50;;;;;;;;;;5022613;28;20562;-65
2022/10/26 05:08:06;;;;;;;6.90;5.55;;;;;;;;;;4997143;28;20054;-65
2022/10/26 05:10:32;;;;;;;7.18;6.50;;;;;;;;;;5007705;28;20287;-65
2022/10/26 05:12:59;;;;;;;7.65;6.45;;;;;;;;;;5022039;28;20413;-65
2022/10/26 05:15:26;;;;;;;7.72;6.13;;;;;;;;;;5027754;28;20069;-65
2022/10/26 05:17:56;;;;;;;7.10;6.50;;;;;;;;;;5007948;28;20140;-65
2022/10/26 05:20:28;;;;;;;7.13;5.50;;;;;;;;;;4993056;28;20050;-65
2022/10/26 05:22:54;;;;;;;6.72;6.03;;;;;;;;;;4995325;28;20120;-65
2022/10/26 05:25:20;;;;;;;6.50;5.78;;;;;;;;;;4996767;28;20396;-65
2022/10/26 05:27:46;;;;;;;5.88;5.30;;;;;;;;;;4993232;28;20057;-65
2022/10/26 05:30:12;;;;;;;5.50;5.00;;;;;;;;;;5017124;28;20049;-65
2022/10/26 05:32:38;;;;;;;5.60;5.10;;;;;;;;;;5003137;28;20046;-65
2022/10/26 05:35:04;;;;;;;9.80;6.68;;;;;;;;;;4996661;28;20052;-65
2022/10/26 05:37:30;;;;;;;7.05;6.35;;;;;;;;;;5009073;28;20044;-65
2022/10/26 05:39:56;;;;;;;6.85;6.05;;;;;;;;;;4997323;28;20061;-65
2022/10/26 05:42:24;;;;;;;6.63;5.90;;;;;;;;;;4998332;28;20041;-65
2022/10/26 05:44:50;;;;;;;5.80;5.20;;;;;;;;;;5004315;28;20049;-65
2022/10/26 05:47:16;;;;;;;6.38;4.93;;;;;;;;;;5003528;28;20636;-65
2022/10/26 05:49:42;;;;;;;6.07;5.47;;;;;;;;;;5020726;28;20045;-65
2022/10/26 05:52:08;;;;;;;5.75;4.78;;;;;;;;;;5009465;28;20217;-66
2022/10/26 05:54:34;;;;;;;8.13;6.38;;;;;;;;;;5010029;28;20053;-64
2022/10/26 05:57:00;;;;;;;7.10;6.40;;;;;;;;;;5006125;28;20476;-64
2022/10/26 05:59:26;;;;;;;7.57;6.85;;;;;;;;;;5007190;28;20142;-64
2022/10/26 06:01:52;;;;;;;11.52;8.38;;;;;;;;;;4998790;28;20149;-64
2022/10/26 06:04:18;;;;;;;8.98;7.97;;;;;;;;;;5017169;28;20132;-64
2022/10/26 06:06:45;;;;;;;8.93;7.88;;;;;;;;;;5002576;28;20703;-64
2022/10/26 06:09:13;;;;;;;11.20;8.45;;;;;;;;;;5011921;28;20136;-64
2022/10/26 06:11:39;;;;;;;10.55;8.48;;;;;;;;;;5006437;28;20046;-64
2022/10/26 06:14:06;;;;;;;8.10;7.40;;;;;;;;;;5015328;28;20103;-65
2022/10/26 06:16:38;;;;;;;8.52;7.28;;;;;;;;;;4998128;28;20064;-64
2022/10/26 06:19:10;;;;;;;7.70;6.88;;;;;;;;;;4991666;28;20045;-64
2022/10/26 06:21:42;;;;;;;6.18;5.68;;;;;;;;;;4999167;28;20412;-64
2022/10/26 06:24:22;;;;;;;7.90;7.10;;;;;;;;;;5013058;28;20042;-64
2022/10/26 06:26:54;;;;;;;7.38;6.68;;;;;;;;;;4992826;28;20043;-64
2022/10/26 06:29:40;;;;;;;6.10;5.55;;;;;;;;;;4992648;28;20091;-64
2022/10/26 06:32:07;;;;;;;7.97;7.00;;;;;;;;;;5006919;28;20103;-64
2022/10/26 06:34:34;;;;;;;7.13;6.43;;;;;;;;;;5014399;28;20038;-64
2022/10/26 06:37:01;;;;;;;8.15;7.28;;;;;;;;;;5011758;28;20053;-64
2022/10/26 06:39:29;;;;;;;6.13;5.53;;;;;;;;;;4994364;28;20084;-64
2022/10/26 06:41:56;;;;;;;8.60;6.85;;;;;;;;;;5010032;28;20054;-64
2022/10/26 06:44:23;;;;;;;6.35;5.43;;;;;;;;;;4990488;28;20046;-64
2022/10/26 06:46:54;;;;;;;6.32;5.78;;;;;;;;;;5005433;28;20041;-64
2022/10/26 06:49:39;;;;;;;7.25;6.45;;;;;;;;;;5011357;28;20048;-64
2022/10/26 06:52:15;;;;;;;7.55;6.15;;;;;;;;;;5011834;28;20054;-64
2022/10/26 06:54:41;;;;;;;6.72;6.13;;;;;;;;;;5007878;28;20041;-65
2022/10/26 06:57:11;;;;;;;8.60;6.57;;;;;;;;;;5006497;28;20395;-64
2022/10/26 06:59:39;;;;;;;6.82;6.15;;;;;;;;;;5005524;28;20136;-63
2022/10/26 07:02:05;;;;;;;7.28;6.35;;;;;;;;;;5009552;28;20048;-63
2022/10/26 07:04:31;;;;;;;6.90;6.20;;;;;;;;;;5010536;28;20586;-64
2022/10/26 07:06:57;;;;;;;6.90;6.30;;;;;;;;;;5015670;28;20382;-64
2022/10/26 07:09:23;;;;;;;7.53;6.82;;;;;;;;;;5007724;28;20120;-64
2022/10/26 07:11:49;;;;;;;8.38;6.07;;;;;;;;;;4994456;28;20088;-64
2022/10/26 07:14:15;;;;;;;7.32;6.63;;;;;;;;;;4991181;28;20049;-64
2022/10/26 07:16:41;;;;;;;7.15;6.43;;;;;;;;;;5009409;28;20129;-64
2022/10/26 07:19:07;;;;;;;7.05;5.63;;;;;;;;;;4989965;28;20057;-64
2022/10/26 07:21:33;;;;;;;7.03;5.00;;;;;;;;;;4985079;28;20037;-63
2022/10/26 07:23:59;;;;;;;4.53;4.13;;;;;;;;;;5003532;28;20081;-63
2022/10/26 07:26:26;;;;;;;4.82;4.38;;;;;;;;;;5006162;28;20496;-63
2022/10/26 07:28:52;;;;;;;4.97;4.43;;;;;;;;;;5011141;28;20393;-64
2022/10/26 07:31:18;;;;;;;5.70;4.85;;;;;;;;;;5010093;28;20038;-64
2022/10/26 07:33:45;;;;;;;4.13;3.72;;;;;;;;;;5013474;28;20535;-64
2022/10/26 07:36:11;;;;;;;5.63;5.13;;;;;;;;;;5004356;28;20077;-66
2022/10/26 07:38:38;;;;;;;4.60;4.20;;;;;;;;;;5004809;28;20568;-66
2022/10/26 07:41:04;;;;;;;3.47;3.17;;;;;;;;;;4980541;28;20042;-66
2022/10/26 07:43:30;;;;;;;4.38;3.97;;;;;;;;;;4995869;28;20388;-66
2022/10/26 07:45:56;;;;;;;4.40;3.03;;;;;;;;;;5000897;28;20042;-66
2022/10/26 07:48:23;;;;;;;3.80;3.50;;;;;;;;;;4986943;28;20407;-66
2022/10/26 07:50:49;;;;;;;3.88;3.58;;;;;;;;;;4997028;28;20396;-64
2022/10/26 07:53:15;;;;;;;3.30;3.00;;;;;;;;;;5009262;28;20048;-65
2022/10/26 07:55:41;;;;;;;3.88;3.47;;;;;;;;;;5021494;28;20061;-65
2022/10/26 07:58:07;;;;;;;4.53;3.58;;;;;;;;;;4999867;28;20455;-63
2022/10/26 08:00:33;;;;;;;4.97;4.22;;;;;;;;;;4993703;28;20045;-64
2022/10/26 08:02:58;;;;;;;5.03;4.60;;;;;;;;;;4994555;28;20499;-65
2022/10/26 08:05:24;;;;;;;8.95;5.00;;;;;;;;;;5013867;28;20124;-64
2022/10/26 08:07:50;;;;;;;4.60;4.10;;;;;;;;;;5011058;28;20455;-64
2022/10/26 08:10:17;;;;;;;4.25;3.85;;;;;;;;;;5010607;28;20042;-64
2022/10/26 08:12:43;;;;;;;3.95;3.65;;;;;;;;;;5019135;28;20041;-64
2022/10/26 08:15:10;;;;;;;4.35;4.00;;;;;;;;;;5011685;28;20091;-64
2022/10/26 08:17:35;;;;;;;3.95;3.65;;;;;;;;;;4998259;28;20053;-65
2022/10/26 08:20:01;;;;;;;3.45;3.03;;;;;;;;;;4991867;28;20049;-64
2022/10/26 08:22:31;;;;;;;4.13;3.53;;;;;;;;;;5015509;28;20121;-65
2022/10/26 08:24:57;;;;;;;4.10;3.70;;;;;;;;;;5012736;28;20042;-65
2022/10/26 08:27:23;;;;;;;3.95;3.65;;;;;;;;;;4991624;28;20435;-64
2022/10/26 08:29:49;;;;;;;4.93;4.10;;;;;;;;;;5009547;28;20041;-64
2022/10/26 08:32:15;;;;;;;4.35;3.85;;;;;;;;;;4993130;28;20042;-63
2022/10/26 08:34:41;;;;;;;3.97;3.65;;;;;;;;;;5001443;28;20385;-64
2022/10/26 08:37:07;;;;;;;3.40;3.10;;;;;;;;;;4997460;28;20050;-64
2022/10/26 08:39:33;;;;;;;5.35;3.80;;;;;;;;;;4991440;28;20045;-63
2022/10/26 08:42:10;;;;;;;4.70;3.15;;;;;;;;;;5009853;28;20129;-64
2022/10/26 08:44:38;;;;;;;4.32;3.10;;;;;;;;;;4993128;28;20041;-64
2022/10/26 08:47:13;;;;;;;3.00;2.80;;;;;;;;;;4996465;28;20105;-64
2022/10/26 08:49:46;;;;;;;2.75;2.53;;;;;;;;;;4986561;28;20272;-64
2022/10/26 08:52:14;;;;;;;5.13;2.95;;;;;;;;;;5004588;28;20068;-64
2022/10/26 08:54:42;;;;;;;3.13;2.92;;;;;;;;;;5009867;28;20049;-64
2022/10/26 08:57:18;;;;;;;3.35;2.70;;;;;;;;;;5002222;28;20038;-63
2022/10/26 08:59:47;;;;;;;3.70;3.30;;;;;;;;;;5010813;28;20041;-63
2022/10/26 09:02:14;;;;;;;3.22;2.80;;;;;;;;;;5014594;28;20053;-65
2022/10/26 09:04:40;;;;;;;4.60;3.47;;;;;;;;;;4991150;28;20041;-64
2022/10/26 09:07:23;;;;;;;3.78;2.90;;;;;;;;;;5010457;28;20053;-64
2022/10/26 09:10:01;;;;;;;3.90;3.50;;;;;;;;;;4994945;28;20045;-64
2022/10/26 09:12:46;;;;;;;5.15;3.17;;;;;;;;;;4985326;28;20409;-64
2022/10/26 09:15:32;;;;;;;2.88;2.60;;;;;;;;;;5010192;28;20585;-63
2022/10/26 09:18:09;;;;;;;3.30;2.38;;;;;;;;;;4996897;28;20053;-63
2022/10/26 09:20:53;;;;;;;3.30;2.40;;;;;;;;;;5008816;28;20069;-64
2022/10/26 09:23:25;;;;;;;3.60;2.00;;;;;;;;;;4996169;28;20041;-63
2022/10/26 09:25:57;;;;;;;2.95;1.83;;;;;;;;;;4998066;28;20054;-63
2022/10/26 09:28:23;;;;;;;;;;;;;;;;;;5009306;28;20409;-63
2022/10/26 09:30:50;;;;;;;3.03;2.00;;;;;;;;;;4985424;28;19925;-63
2022/10/26 09:33:18;;;;;;;2.70;2.22;;;;;;;;;;5003308;28;20158;-63
2022/10/26 09:35:50;;;;;;;4.30;2.45;;;;;;;;;;4980607;28;20477;-63
2022/10/26 09:38:20;;;;;;;2.22;2.03;;;;;;;;;;4997849;28;20048;-63
2022/10/26 09:40:56;;;;;;;3.05;2.30;;;;;;;;;;5003639;28;20115;-63
2022/10/26 09:43:25;;;;;;;3.08;2.30;;;;;;;;;;5011670;28;20042;-63
2022/10/26 09:45:52;;;;;;;3.45;2.20;;;;;;;;;;4992441;28;20097;-63
2022/10/26 09:48:38;;;;;;;4.93;2.80;;;;;;;;;;5004062;28;20393;-63
2022/10/26 09:51:05;;;;;;;2.90;2.15;;;;;;;;;;4989554;28;20365;-63
2022/10/26 09:53:31;;;;;;;2.70;2.30;;;;;;;;;;4986392;28;20038;-63
2022/10/26 09:56:01;;;;;;;2.95;2.63;;;;;;;;;;5006908;28;20049;-64
2022/10/26 09:58:29;;;;;;;2.90;2.60;;;;;;;;;;4998930;28;20061;-63
2022/10/26 10:00:55;;;;;;;1.98;1.70;;;;;;;;;;4989525;28;20060;-64
2022/10/26 10:03:25;;;;;;;2.85;2.20;;;;;;;;;;4982300;28;20153;-64
2022/10/26 10:05:51;;;;;;;5.32;2.38;;;;;;;;;;4983950;28;20040;-64
2022/10/26 10:08:17;;;;;;;1.52;1.42;;;;;;;;;;4988432;28;20120;-64
2022/10/26 10:10:56;;;;;;;2.97;1.90;;;;;;;;;;4991713;28;20111;-64
2022/10/26 10:13:23;;;;;;;3.83;2.20;;;;;;;;;;4984072;28;20556;-63
2022/10/26 10:15:53;;;;;;;2.75;2.22;;;;;;;;;;4990363;28;20248;-63
2022/10/26 10:18:23;;;;;;;2.95;2.08;;;;;;;;;;4995027;28;20508;-63
2022/10/26 10:20:56;;;;;;;3.30;1.83;;;;;;;;;;5004572;28;20068;-63
2022/10/26 10:23:28;;;;;;;3.65;2.08;;;;;;;;;;5006766;28;20044;-63
2022/10/26 10:26:01;;;;;;;2.10;2.00;;;;;;;;;;5004728;28;20096;-63
2022/10/26 10:28:27;;;;;;;1.90;1.50;;;;;;;;;;5004422;28;20440;-63
2022/10/26 10:31:00;;;;;;;3.70;2.20;;;;;;;;;;5002895;28;20408;-63
2022/10/26 10:33:37;;;;;;;2.78;2.05;;;;;;;;;;5004595;28;20092;-63
2022/10/26 10:36:05;;;;;;;2.47;2.25;;;;;;;;;;4978814;28;20057;-63
2022/10/26 10:38:36;;;;;;;3.55;2.38;;;;;;;;;;5005789;28;20132;-63
2022/10/26 10:41:03;;;;;;;1.60;1.50;;;;;;;;;;4994910;28;20047;-63
2022/10/26 10:43:29;;;;;;;2.58;1.90;;;;;;;;;;4990143;28;20048;-63
2022/10/26 10:45:56;;;;;;;2.92;1.73;;;;;;;;;;4977125;28;20503;-63
2022/10/26 10:48:24;;;;;;;2.08;1.60;;;;;;;;;;4986769;28;20058;-65
2022/10/26 10:50:52;;;;;;;1.20;1.10;;;;;;;;;;4983575;28;20437;-62
2022/10/26 10:53:37;;;;;;;1.73;1.00;;;;;;;;;;4988467;28;20077;-62
2022/10/26 10:56:06;;;;;;;2.72;1.30;;;;;;;;;;4989997;28;20057;-64
2022/10/26 10:58:44;;;;;;;4.65;1.52;;;;;;;;;;5012520;28;20136;-62
2022/10/26 11:01:13;;;;;;;1.10;0.98;;;;;;;;;;4985366;28;20045;-62
2022/10/26 11:03:46;;;;;;;1.40;1.30;;;;;;;;;;5016769;28;20065;-62
2022/10/26 11:06:23;;;;;;;4.20;1.73;;;;;;;;;;5026695;28;20079;-62
2022/10/26 11:08:55;;;;;;;4.18;2.10;;;;;;;;;;5026193;28;20130;-62
2022/10/26 11:11:25;;;;;;;5.57;1.48;;;;;;;;;;5026528;28;20619;-62
2022/10/26 11:13:57;;;;;;;1.73;1.55;;;;;;;;;;5026735;28;20098;-62
2022/10/26 11:16:23;;;;;;;;;;;;;;;;;;5025975;28;20057;-62
2022/10/26 11:18:56;;;;;;;1.20;0.93;;;;;;;;;;5008081;28;20016;-62
2022/10/26 11:21:27;;;;;;;2.80;1.55;;;;;;;;;;5026557;28;20049;-62
2022/10/26 11:23:56;;;;;;;1.95;1.40;;;;;;;;;;5025676;28;20103;-62
2022/10/26 11:26:33;;;;;;;1.25;1.10;;;;;;;;;;5007345;28;20142;-62
2022/10/26 11:29:20;;;;;;;2.80;1.25;;;;;;;;;;5025902;28;20408;-62
2022/10/26 11:31:50;;;;;;;1.30;1.20;;;;;;;;;;4994487;28;20064;-62
2022/10/26 11:34:35;;;;;;;4.88;2.20;;;;;;;;;;5026074;28;20053;-62
2022/10/26 11:37:05;;;;;;;2.63;1.60;;;;;;;;;;5008013;28;20045;-62
2022/10/26 11:39:37;;;;;;;1.85;1.33;;;;;;;;;;5008340;28;20075;-62
2022/10/26 11:42:22;;;;;;;2.88;1.35;;;;;;;;;;5008506;28;20077;-62
2022/10/26 11:44:55;;;;;;;6.25;1.80;;;;;;;;;;5008202;28;20042;-62
2022/10/26 11:47:33;;;;;;;3.13;1.63;;;;;;;;;;5008467;28;20137;-62
2022/10/26 11:50:20;;;;;;;3.05;1.80;;;;;;;;;;5026607;28;20128;-62
2022/10/26 11:52:52;;;;;;;2.42;1.75;;;;;;;;;;5025295;28;20570;-62
2022/10/26 11:55:18;;;;;;;;;;;;;;;;;;5026434;28;20115;-62
2022/10/26 11:57:45;;;;;;;3.30;1.90;;;;;;;;;;5025438;28;19987;-63
2022/10/26 12:00:16;;;;;;;6.15;2.25;;;;;;;;;;5009084;28;20046;-63
2022/10/26 12:02:43;;;;;;;3.05;1.83;;;;;;;;;;5008726;28;20041;-63
2022/10/26 12:05:15;;;;;;;2.08;1.80;;;;;;;;;;5008607;28;20042;-63
2022/10/26 12:07:44;;;;;;;2.78;1.73;;;;;;;;;;5008737;28;20041;-63
2022/10/26 12:10:20;;;;;;;3.17;1.70;;;;;;;;;;5026505;28;20527;-63
2022/10/26 12:12:50;;;;;;;3.53;1.55;;;;;;;;;;5025349;28;20147;-63
2022/10/26 12:15:30;;;;;;;2.53;1.73;;;;;;;;;;5025945;28;20172;-63
2022/10/26 12:18:03;;;;;;;18.27;2.50;;;;;;;;;;5026105;28;20059;-63
2022/10/26 12:20:48;;;;;;;3.22;2.20;;;;;;;;;;5025428;28;20468;-62
2022/10/26 12:23:14;;;;;;;3.17;2.00;;;;;;;;;;5008197;28;20041;-63
2022/10/26 12:25:40;;;;;;;4.45;2.45;;;;;;;;;;5008340;28;20095;-62
2022/10/26 12:28:26;;;;;;;4.55;2.13;;;;;;;;;;5026433;28;20215;-62
2022/10/26 12:30:52;;;;;;;2.63;1.92;;;;;;;;;;5027746;28;20095;-62
2022/10/26 12:33:28;;;;;;;3.05;2.22;;;;;;;;;;5010844;28;20488;-62
2022/10/26 12:35:54;;;;;;;3.75;1.90;;;;;;;;;;5012031;28;20124;-62
2022/10/26 12:38:23;;;;;;;5.57;2.35;;;;;;;;;;5011779;28;20475;-62
2022/10/26 12:41:14;;;;;;;4.93;2.25;;;;;;;;;;5011334;28;20535;-63
2022/10/26 12:43:40;;;;;;;3.63;2.13;;;;;;;;;;5012385;28;20503;-62
2022/10/26 12:46:12;;;;;;;4.20;2.25;;;;;;;;;;5012330;28;20045;-62
2022/10/26 12:48:38;;;;;;;;;;;;;;;;;;5029592;28;20046;-62
2022/10/26 12:51:20;;;;;;;3.78;1.90;;;;;;;;;;5011676;28;19921;-62
2022/10/26 12:53:57;;;;;;;4.47;2.40;;;;;;;;;;5011554;28;20046;-62
2022/10/26 12:56:43;;;;;;;4.63;2.00;;;;;;;;;;5028990;28;20446;-62
2022/10/26 12:59:28;;;;;;;4.40;3.05;;;;;;;;;;5015523;28;20053;-62
2022/10/26 13:01:57;;;;;;;3.25;2.60;;;;;;;;;;5010722;28;20053;-62
2022/10/26 13:04:23;;;;;;;4.22;3.30;;;;;;;;;;5010960;28;20060;-62
2022/10/26 13:07:07;;;;;;;8.93;3.97;;;;;;;;;;5011421;28;20053;-62
2022/10/26 13:09:33;;;;;;;4.45;3.03;;;;;;;;;;5009949;28;20056;-62
2022/10/26 13:12:01;;;;;;;3.47;3.15;;;;;;;;;;5011301;28;20053;-62
2022/10/26 13:14:30;;;;;;;3.47;3.15;;;;;;;;;;5010950;28;20408;-62
2022/10/26 13:16:57;;;;;;;5.93;4.05;;;;;;;;;;5009801;28;20095;-61
2022/10/26 13:19:30;;;;;;;5.72;3.70;;;;;;;;;;5028509;28;20053;-62
2022/10/26 13:21:58;;;;;;;4.72;3.50;;;;;;;;;;5028360;28;20038;-62
2022/10/26 13:24:24;;;;;;;4.82;3.67;;;;;;;;;;5028216;28;20072;-62
2022/10/26 13:27:06;;;;;;;4.05;2.90;;;;;;;;;;5029027;28;20069;-62
2022/10/26 13:29:52;;;;;;;5.22;3.38;;;;;;;;;;5027469;28;20053;-62
2022/10/26 13:32:19;;;;;;;6.20;4.13;;;;;;;;;;5010252;28;20132;-62
2022/10/26 13:34:46;;;;;;;4.07;3.67;;;;;;;;;;5028513;28;20050;-62
2022/10/26 13:37:19;;;;;;;7.88;3.85;;;;;;;;;;5009664;28;20488;-62
2022/10/26 13:39:46;;;;;;;5.22;3.60;;;;;;;;;;5010424;28;20573;-62
2022/10/26 13:42:16;;;;;;;4.13;3.45;;;;;;;;;;5009589;28;20067;-62
2022/10/26 13:45:00;;;;;;;4.72;3.50;;;;;;;;;;5027591;28;20069;-62
2022/10/26 13:47:32;;;;;;;7.78;3.55;;;;;;;;;;5028263;28;20045;-62
2022/10/26 13:50:02;;;;;;;9.05;3.38;;;;;;;;;;5028098;28;20037;-62
2022/10/26 13:52:30;;;;;;;3.10;2.75;;;;;;;;;;5027286;28;20195;-62
2022/10/26 13:55:18;;;;;;;3.47;3.17;;;;;;;;;;5028070;28;20064;-62
2022/10/26 13:57:50;;;;;;;7.43;3.90;;;;;;;;;;5026976;28;20041;-62
2022/10/26 14:00:20;;;;;;;5.43;3.50;;;;;;;;;;5010262;28;20183;-62
2022/10/26 14:02:47;;;;;;;4.05;3.20;;;;;;;;;;5027679;28;20635;-62
2022/10/26 14:05:14;;;;;;;5.00;3.28;;;;;;;;;;5009262;28;20064;-62
2022/10/26 14:07:42;;;;;;;3.50;2.53;;;;;;;;;;5028634;28;20076;-62
2022/10/26 14:10:22;;;;;;;3.50;3.20;;;;;;;;;;5028359;28;20060;-61
2022/10/26 14:12:49;;;;;;;9.20;3.72;;;;;;;;;;5009559;28;20061;-62
2022/10/26 14:15:16;;;;;;;5.45;3.20;;;;;;;;;;5026911;28;20072;-62
2022/10/26 14:17:42;;;;;;;4.45;2.92;;;;;;;;;;5027674;28;20076;-62
2022/10/26 14:20:16;;;;;;;2.70;2.20;;;;;;;;;;5027483;28;20045;-62
2022/10/26 14:22:43;;;;;;;3.47;2.58;;;;;;;;;;5010122;28;20140;-62
2022/10/26 14:25:17;;;;;;;2.95;2.55;;;;;;;;;;5027887;28;20073;-62
2022/10/26 14:27:43;;;;;;;5.43;2.70;;;;;;;;;;5027269;28;20499;-61
2022/10/26 14:30:27;;;;;;;4.25;2.58;;;;;;;;;;5010124;28;20049;-62
2022/10/26 14:32:53;;;;;;;4.82;2.35;;;;;;;;;;5009110;28;20151;-62
2022/10/26 14:35:25;;;;;;;3.33;2.10;;;;;;;;;;5009341;28;20092;-62
2022/10/26 14:38:02;;;;;;;7.85;2.10;;;;;;;;;;5009317;28;20134;-62
2022/10/26 14:40:30;;;;;;;1.90;1.58;;;;;;;;;;5026213;28;20048;-62
2022/10/26 14:42:57;;;;;;;2.30;1.60;;;;;;;;;;5009820;28;20046;-62
2022/10/26 14:45:29;;;;;;;1.85;1.75;;;;;;;;;;5026985;28;20045;-62
2022/10/26 14:47:55;;;;;;;3.55;1.85;;;;;;;;;;5008724;28;20050;-62
2022/10/26 14:50:23;;;;;;;2.35;1.90;;;;;;;;;;5026500;28;20405;-62
2022/10/26 14:52:49;;;;;;;3.40;2.10;;;;;;;;;;5026881;28;20052;-62
2022/10/26 14:55:16;;;;;;;5.07;2.42;;;;;;;;;;5025414;28;20124;-62
2022/10/26 14:57:43;;;;;;;3.00;2.20;;;;;;;;;;5027118;28;20132;-62